Nearby METAR Reports

 

YSCB - Canberra (civ/Mi, Australia
Distance from station: NNE 21km
Updated: 24/09/2017 05:30
Clear
Clear
 Wind from NNW
Wind: NNW 22 km/h
Temperature: 14°C
Dew Point: 4°C
Humidity: 51%
Barometer: 1004 hPa
Clouds: Clear
Visibility: 10 km
2017/09/23 19:30 YSCB 231930Z AUTO 34012KT 9999 // NCD 14/04 Q1004
YCOM - Cooma Snowy Mtns, Australia
Distance from station: S 94km
Updated: 24/09/2017 05:00
Clear
Clear
 Wind from WNW
Wind: WNW 31 km/h, Gust: 50 km/h
Temperature: 12°C
Dew Point: -3°C
Humidity: 35%
Barometer: 1001 hPa
Clouds: Clear
Visibility: 10 km
2017/09/23 19:00 YCOM 231900Z AUTO 30017G27KT 9999 // NCD 12/M03 Q1001
 
YSNW - Nowra (aus-Navy), Australia
Distance from station: ENE 140km
Updated: 24/09/2017 05:00
Clear
Clear
 Wind from W
Wind: W 28 km/h
Temperature: 24°C
Dew Point: 0°C
Humidity: 21%
Barometer: 1000 hPa
Clouds: Clear
Visibility: 10 km
2017/09/23 19:00 YSNW 231900Z AUTO 28015KT 9999 // NCD 24/00 Q1000
YSWG - Wagga Wagga(Cv/M, Australia
Distance from station: WNW 153km
Updated: 24/09/2017 06:00
Clear
Clear
 Wind from calm
Wind: Calm
Temperature: 9°C
Dew Point: 5°C
Humidity: 76%
Barometer: 1005 hPa
Clouds: Clear
Visibility: 10 km
2017/09/23 20:00 YSWG 232000Z AUTO 00000KT 9999 // NCD 09/05 Q1005
 
YMER - Merimbula Arpt, Australia
Distance from station: SSE 177km
Updated: 24/09/2017 05:00
Clear
Clear
 Wind from N
Wind: N 9 km/h
Temperature: 13°C
Dew Point: 10°C
Humidity: 82%
Barometer: 999 hPa
Clouds: Clear
Visibility: 10 km
2017/09/23 19:00 YMER 231900Z AUTO 01005KT 9999 // NCD 13/10 Q0999
YMAY - Albury Airport, Australia
Distance from station: WSW 207km
Updated: 24/09/2017 05:00
Clear
Clear
 Wind from WNW
Wind: WNW 11 km/h
Temperature: 12°C
Dew Point: 7°C
Humidity: 72%
Barometer: 1004 hPa
Clouds: Clear
Visibility: 10 km
2017/09/23 19:00 YMAY 231900Z AUTO 30006KT 9999 // NCD 12/07 Q1004
 
YNAR - Narrandera, Australia
Distance from station: WNW 250km
Updated: 24/09/2017 05:00

 Wind from NNW
Wind: NNW 2 km/h
Temperature: 11°C
Dew Point: 6°C
Humidity: 72%
Barometer: 1005 hPa
2017/09/23 19:00 YNAR 231900Z AUTO 34001KT //// // ////// 11/06 Q1005
YSSY - Sydney Intl Airp, Australia
Distance from station: NE 253km
Updated: 24/09/2017 05:30
Clear
Clear
 Wind from WNW
Wind: WNW 39 km/h
Temperature: 29°C
Dew Point: 2°C
Humidity: 18%
Barometer: 998 hPa
Summary: Clear
Visibility: greater than 10 km
2017/09/23 19:30 YSSY 231930Z 30021KT CAVOK 29/02 Q0998 FM1930 MOD/SEV TURB BLW 5000FT
 
YSRI - Richmond (aus-Af, Australia
Distance from station: NE 257km
Updated: 24/09/2017 06:00
Clear
Clear
 Wind from NW
Wind: NW 15 km/h
Temperature: 28°C
Dew Point: 3°C
Humidity: 20%
Barometer: 1000 hPa
Clouds: Clear
Visibility: 10 km
2017/09/23 20:00 YSRI 232000Z AUTO 32008KT 9999 // NCD 28/03 Q1000
YWGT - Wangaratta Arp, Australia
Distance from station: WSW 274km
Updated: 24/09/2017 06:00
Partly cloudy
Partly cloudy
 Wind from N
Wind: N 17 km/h
Temperature: 11°C
Dew Point: 8°C
Humidity: 82%
Barometer: 1003 hPa
Clouds: Partly cloudy
Visibility: 10 km
Cloud details: Partly cloudy 701 m
2017/09/23 20:00 YWGT 232000Z AUTO 35009KT 9999 // SCT023 11/08 Q1003
 
YGTH - Griffith Arpt, Australia
Distance from station: WNW 308km
Updated: 24/09/2017 05:00
Clear
Clear
 Wind from W
Wind: W 6 km/h
Temperature: 9°C
Dew Point: 2°C
Humidity: 62%
Barometer: 1005 hPa
Clouds: Clear
Visibility: 10 km
2017/09/23 19:00 YGTH 231900Z AUTO 27003KT 9999 // NCD 09/02 Q1005